Rechercher aéroport 
image banner adimage banner adimage banner ad
image banner ad

KHHR - Jack Northrop Field/Hawthorne Muni

Situé à Hawthorne, United States

ICAO - HHR, IATA -

Données fournies par Airmate  

Information générale

Coordonnées: N33°55'22" W118°20'6"
Élévation : 66 feet MSL.
Variation magnétique : 14° East
Voir autres Aéroports à California

Données opérationnelles

Special qualification required
Heure actuelle UTC:
Heure actuelle locale:
Météo
METAR: KHHR 251253Z 24004KT 10SM CLR 19/16 A2996 RMK AO2 SLP145 T01940156
Voir NOTAMs / SUP AIP / TFR affectant cet aéroport [VIEW]
Fréquences de communication: [VIEW]

Pistes:

Identifiant RWYQFULongueur (ft)Largeur (ft)SurfaceLDA (ft)
0787°4884100ASPH3765
25267°4884100ASPH4193

Coordonnées de l'aéroport

Adresse: Hawthorne United States

Autres services d'aviation

Écoles de pilotage

Beach Cities Aviation Academy

Beach Cities Aviation Academy
flybcaa@gmail.com+1(310)676-2206

Calair Aviation

Calair Aviation

Star Helicopters

Star Helicopters

Vue satellite de KHHR